createdAt,value
2018-04-06T00:00:07.295Z,7.10
2018-04-06T00:02:36.495Z,6.57
2018-04-06T00:05:06.598Z,7.00
2018-04-06T00:07:35.377Z,6.47
2018-04-06T00:10:04.673Z,6.40
2018-04-06T00:12:34.607Z,7.00
2018-04-06T00:15:03.012Z,7.00
2018-04-06T00:17:32.309Z,5.60
2018-04-06T00:20:03.532Z,5.70
2018-04-06T00:22:31.964Z,6.07
2018-04-06T00:25:01.249Z,5.80
2018-04-06T00:27:30.119Z,5.90
2018-04-06T00:29:59.468Z,5.30
2018-04-06T00:32:30.298Z,6.17
2018-04-06T00:34:59.406Z,6.37
2018-04-06T00:37:28.659Z,6.33
2018-04-06T00:39:57.018Z,6.73
2018-04-06T00:42:26.285Z,6.30
2018-04-06T00:44:54.650Z,7.20
2018-04-06T00:47:23.926Z,6.63
2018-04-06T00:49:52.292Z,5.80
2018-04-06T00:52:22.368Z,5.60
2018-04-06T00:54:52.624Z,6.57
2018-04-06T00:57:21.891Z,5.60
2018-04-06T00:59:52.135Z,5.37
2018-04-06T01:02:21.156Z,5.53
2018-04-06T01:04:50.301Z,5.37
2018-04-06T01:07:18.928Z,5.23
2018-04-06T01:09:48.755Z,5.93
2018-04-06T01:12:18.192Z,5.97
2018-04-06T01:14:47.082Z,5.47
2018-04-06T01:17:16.348Z,6.37
2018-04-06T01:19:46.463Z,6.23
2018-04-06T01:22:15.734Z,7.07
2018-04-06T01:24:44.876Z,6.50
2018-04-06T01:27:14.759Z,6.83
2018-04-06T01:29:45.904Z,6.37
2018-04-06T01:32:15.754Z,7.10
2018-04-06T01:34:44.095Z,6.53
2018-04-06T01:37:13.707Z,7.27
2018-04-06T01:39:43.439Z,6.50
2018-04-06T01:42:12.589Z,6.13
2018-04-06T01:44:42.107Z,6.10
2018-04-06T01:47:11.106Z,5.47
2018-04-06T01:49:39.837Z,5.07
2018-04-06T01:52:09.333Z,5.30
2018-04-06T01:54:39.525Z,6.60
2018-04-06T01:57:09.606Z,5.30
2018-04-06T01:59:39.292Z,5.67
2018-04-06T02:02:08.571Z,6.90
2018-04-06T02:04:37.810Z,7.10
2018-04-06T02:07:07.539Z,7.57
2018-04-06T02:09:36.603Z,7.07
2018-04-06T02:12:05.529Z,7.50
2018-04-06T02:14:34.761Z,8.07
2018-04-06T02:17:03.121Z,8.37
2018-04-06T02:19:31.909Z,6.80
2018-04-06T02:22:01.931Z,6.40
2018-04-06T02:24:32.665Z,6.90
2018-04-06T02:27:02.421Z,6.53
2018-04-06T02:29:31.569Z,6.17
2018-04-06T02:32:01.641Z,6.90
2018-04-06T02:34:31.003Z,7.37
2018-04-06T02:36:59.379Z,7.27
2018-04-06T02:39:29.318Z,7.97
2018-04-06T02:41:58.744Z,7.10
2018-04-06T02:44:29.371Z,7.53
2018-04-06T02:47:00.554Z,7.10
2018-04-06T02:49:28.983Z,6.70
2018-04-06T02:51:59.507Z,6.73
2018-04-06T02:54:30.446Z,7.07
2018-04-06T02:56:58.820Z,7.37
2018-04-06T02:59:28.998Z,7.33
2018-04-06T03:01:58.952Z,7.10
2018-04-06T03:04:28.448Z,7.17
2018-04-06T03:06:57.750Z,6.90
2018-04-06T03:09:28.129Z,7.00
2018-04-06T03:11:56.950Z,7.40
2018-04-06T03:14:27.215Z,7.47
2018-04-06T03:16:56.324Z,7.23
2018-04-06T03:19:24.735Z,6.33
2018-04-06T03:21:53.103Z,6.20
2018-04-06T03:24:24.192Z,6.37
2018-04-06T03:26:54.687Z,6.30
2018-04-06T03:29:23.046Z,7.30
2018-04-06T03:31:52.890Z,7.23
2018-04-06T03:34:21.535Z,6.53
2018-04-06T03:36:50.743Z,6.47
2018-04-06T03:39:20.545Z,7.03
2018-04-06T03:41:49.280Z,7.00
2018-04-06T03:44:17.782Z,7.67
2018-04-06T03:46:46.174Z,7.90
2018-04-06T03:49:17.543Z,8.07
2018-04-06T03:51:47.452Z,9.10
2018-04-06T03:54:15.820Z,8.47
2018-04-06T03:56:47.704Z,7.57
2018-04-06T03:59:16.117Z,8.37
2018-04-06T04:01:45.153Z,7.77
2018-04-06T04:04:14.476Z,9.03
2018-04-06T04:06:44.007Z,8.80
2018-04-06T04:09:14.429Z,9.20
2018-04-06T04:11:44.868Z,9.67
2018-04-06T04:14:15.446Z,8.50
2018-04-06T04:16:44.453Z,9.27
2018-04-06T04:19:15.144Z,8.00
2018-04-06T04:21:44.285Z,9.00
2018-04-06T04:24:12.607Z,8.80
2018-04-06T04:26:42.102Z,8.37
2018-04-06T04:29:11.301Z,8.20
2018-04-06T04:31:40.562Z,8.67
2018-04-06T04:34:09.310Z,8.47
2018-04-06T04:36:37.879Z,8.33
2018-04-06T04:39:06.790Z,8.13
2018-04-06T04:41:36.635Z,8.60
2018-04-06T04:44:07.645Z,8.00
2018-04-06T04:46:37.112Z,8.40
2018-04-06T04:49:07.192Z,8.80
2018-04-06T04:51:36.560Z,8.07
2018-04-06T04:54:05.778Z,9.37
2018-04-06T04:56:35.104Z,8.57
2018-04-06T04:59:03.480Z,8.10
2018-04-06T05:01:32.884Z,8.13
2018-04-06T05:04:03.689Z,9.17
2018-04-06T05:06:33.055Z,8.10
2018-04-06T05:09:03.242Z,8.33
2018-04-06T05:11:33.734Z,7.80
2018-04-06T05:14:02.068Z,8.00
2018-04-06T05:16:32.758Z,7.67
2018-04-06T05:19:02.163Z,8.20
2018-04-06T05:21:31.504Z,8.10
2018-04-06T05:24:01.833Z,8.03
2018-04-06T05:26:32.350Z,7.63
2018-04-06T05:29:00.783Z,7.87
2018-04-06T05:31:29.988Z,7.73
2018-04-06T05:33:59.935Z,7.77
2018-04-06T05:36:30.394Z,7.80
2018-04-06T05:38:59.332Z,9.20
2018-04-06T05:41:28.410Z,8.60
2018-04-06T05:43:58.277Z,7.83
2018-04-06T05:46:28.818Z,7.70
2018-04-06T05:48:57.341Z,8.17
2018-04-06T05:51:26.357Z,8.30
2018-04-06T05:53:58.340Z,8.30
2018-04-06T05:56:28.205Z,8.60
2018-04-06T05:58:56.643Z,8.87
2018-04-06T06:01:25.719Z,8.27
2018-04-06T06:03:55.116Z,8.73
2018-04-06T06:06:23.835Z,8.70
2018-04-06T06:08:53.170Z,9.50
2018-04-06T06:11:21.758Z,9.67
2018-04-06T06:13:50.842Z,9.53
2018-04-06T06:16:21.495Z,9.90
2018-04-06T06:18:52.262Z,9.17
2018-04-06T06:21:21.154Z,8.73
2018-04-06T06:23:50.356Z,7.87
2018-04-06T06:26:20.386Z,7.23
2018-04-06T06:28:49.460Z,7.27
2018-04-06T06:31:19.036Z,8.13
2018-04-06T06:33:48.129Z,9.77
2018-04-06T06:36:19.239Z,8.53
2018-04-06T06:38:48.742Z,8.80
2018-04-06T06:41:18.968Z,8.67
2018-04-06T06:43:49.607Z,9.40
2018-04-06T06:46:17.934Z,9.17
2018-04-06T06:48:47.187Z,8.47
2018-04-06T06:51:16.640Z,7.87
2018-04-06T06:53:45.966Z,7.90
2018-04-06T06:56:16.142Z,8.00
2018-04-06T06:58:45.919Z,8.53
2018-04-06T07:01:16.072Z,8.00
2018-04-06T07:03:44.703Z,7.43
2018-04-06T07:06:13.077Z,7.47
2018-04-06T07:08:43.967Z,7.37
2018-04-06T07:11:14.869Z,7.13
2018-04-06T07:13:44.020Z,7.93
2018-04-06T07:16:14.205Z,7.77
2018-04-06T07:18:45.578Z,6.73
2018-04-06T07:21:14.966Z,5.93
2018-04-06T07:23:44.214Z,6.50
2018-04-06T07:26:14.089Z,6.00
2018-04-06T07:28:43.172Z,5.93
2018-04-06T07:31:12.595Z,5.30
2018-04-06T07:33:41.814Z,5.13
2018-04-06T07:36:12.239Z,5.23
2018-04-06T07:38:42.889Z,4.40
2018-04-06T07:41:11.989Z,3.80
2018-04-06T07:43:41.303Z,4.30
2018-04-06T07:46:09.663Z,4.07
2018-04-06T07:48:38.021Z,3.67
2018-04-06T07:51:08.008Z,4.00
2018-04-06T07:53:37.043Z,4.37
2018-04-06T07:56:06.306Z,3.87
2018-04-06T07:58:34.647Z,3.60
2018-04-06T08:01:03.518Z,3.50
2018-04-06T08:03:33.198Z,3.40
2018-04-06T08:06:01.570Z,3.73
2018-04-06T08:08:30.033Z,3.70
2018-04-06T08:10:58.666Z,3.50
2018-04-06T08:13:29.532Z,3.07
2018-04-06T08:16:00.867Z,3.00
2018-04-06T08:18:29.495Z,3.30
2018-04-06T08:20:58.824Z,7.07
2018-04-06T08:23:28.501Z,3.27
2018-04-06T08:25:57.656Z,2.70
2018-04-06T08:28:26.978Z,2.93
2018-04-06T08:30:55.971Z,2.90
2018-04-06T08:33:24.978Z,4.77
2018-04-06T08:35:55.073Z,2.70
2018-04-06T08:38:23.709Z,3.03
2018-04-06T08:40:55.794Z,2.60
2018-04-06T08:43:24.140Z,4.03
2018-04-06T08:45:52.538Z,2.17
2018-04-06T08:48:22.195Z,2.50
2018-04-06T08:50:52.758Z,4.90
2018-04-06T08:53:21.096Z,2.60
2018-04-06T08:55:49.402Z,2.67
2018-04-06T08:58:18.572Z,2.13
2018-04-06T09:00:47.118Z,2.60
2018-04-06T09:03:16.302Z,2.10
2018-04-06T09:05:45.413Z,1.70
2018-04-06T09:08:13.837Z,1.90
2018-04-06T09:10:42.967Z,2.13
2018-04-06T09:13:12.950Z,2.20
2018-04-06T09:15:41.318Z,2.60
2018-04-06T09:18:09.719Z,2.27
2018-04-06T09:20:38.294Z,2.33
2018-04-06T09:23:09.360Z,2.20
2018-04-06T09:25:38.560Z,2.30
2018-04-06T09:28:06.952Z,2.20
2018-04-06T09:30:36.243Z,2.50
2018-04-06T09:33:04.652Z,2.60
2018-04-06T09:35:34.542Z,2.40
2018-04-06T09:38:03.143Z,1.93
2018-04-06T09:40:31.458Z,2.43
2018-04-06T09:42:59.935Z,2.30
2018-04-06T09:45:29.890Z,2.53
2018-04-06T09:47:59.895Z,2.87
2018-04-06T09:50:28.209Z,4.20
2018-04-06T09:52:57.264Z,4.67
2018-04-06T09:55:28.657Z,2.73
2018-04-06T09:57:59.904Z,2.43
2018-04-06T10:00:32.931Z,2.90
2018-04-06T10:03:03.150Z,2.93
2018-04-06T10:05:32.886Z,3.17
2018-04-06T10:08:02.887Z,2.50
2018-04-06T10:10:31.295Z,3.13
2018-04-06T10:12:59.687Z,2.57
2018-04-06T10:15:28.395Z,2.80
2018-04-06T10:17:57.028Z,3.70
2018-04-06T10:20:26.090Z,3.10
2018-04-06T10:22:55.004Z,2.10
2018-04-06T10:25:23.383Z,2.53
2018-04-06T10:27:52.692Z,2.20
2018-04-06T10:30:23.675Z,2.40
2018-04-06T10:32:52.018Z,2.07
2018-04-06T10:35:21.698Z,2.27
2018-04-06T10:37:50.847Z,5.17
2018-04-06T10:40:19.881Z,1.90
2018-04-06T10:42:48.602Z,1.97
2018-04-06T10:45:17.385Z,1.80
2018-04-06T10:47:48.083Z,1.80
2018-04-06T10:50:18.257Z,3.03
2018-04-06T10:52:48.301Z,3.90
2018-04-06T10:55:17.648Z,1.90
2018-04-06T10:57:47.154Z,2.97
2018-04-06T11:00:16.924Z,1.60
2018-04-06T11:02:46.110Z,1.97
2018-04-06T11:05:15.371Z,4.27
2018-04-06T11:07:43.767Z,2.47
2018-04-06T11:10:12.792Z,1.53
2018-04-06T11:12:41.084Z,1.20
2018-04-06T11:15:10.815Z,0.80
2018-04-06T11:17:39.168Z,1.30
2018-04-06T11:20:07.560Z,1.40
2018-04-06T11:22:36.952Z,1.03
2018-04-06T11:25:05.307Z,1.70
2018-04-06T11:27:34.646Z,1.60
2018-04-06T11:30:03.007Z,1.43
2018-04-06T11:32:32.320Z,1.17
2018-04-06T11:35:00.947Z,1.03
2018-04-06T11:37:30.966Z,1.20
2018-04-06T11:39:59.956Z,1.27
2018-04-06T11:42:28.324Z,1.00
2018-04-06T11:44:57.920Z,1.33
2018-04-06T11:47:27.146Z,1.00
2018-04-06T11:49:55.546Z,1.10
2018-04-06T11:52:23.885Z,1.47
2018-04-06T11:54:52.644Z,1.10
2018-04-06T11:57:21.027Z,1.17
2018-04-06T11:59:50.934Z,1.03
2018-04-06T12:02:19.304Z,1.30
2018-04-06T12:04:47.648Z,1.20
2018-04-06T12:07:16.026Z,1.20
2018-04-06T12:09:45.957Z,1.07
2018-04-06T12:12:14.691Z,1.70
2018-04-06T12:14:43.911Z,0.87
2018-04-06T12:17:12.856Z,1.20
2018-04-06T12:19:42.296Z,1.03
2018-04-06T12:22:10.728Z,1.23
2018-04-06T12:24:39.087Z,1.00
2018-04-06T12:27:08.355Z,1.13
2018-04-06T12:29:36.745Z,1.30
2018-04-06T12:32:05.919Z,0.93
2018-04-06T12:34:34.294Z,1.00
2018-04-06T12:37:03.792Z,1.10
2018-04-06T12:39:32.259Z,1.03
2018-04-06T12:42:02.159Z,1.20
2018-04-06T12:44:30.789Z,1.23
2018-04-06T12:47:00.008Z,1.40
2018-04-06T12:49:28.445Z,1.30
2018-04-06T12:51:58.064Z,1.40
2018-04-06T12:54:28.550Z,1.30
2018-04-06T12:56:56.906Z,1.07
2018-04-06T12:59:26.049Z,1.10
2018-04-06T13:01:54.784Z,0.93
2018-04-06T13:04:25.478Z,1.10
2018-04-06T13:06:55.668Z,1.33
2018-04-06T13:09:24.396Z,0.90
2018-04-06T13:11:53.536Z,0.83
2018-04-06T13:14:22.343Z,1.13
2018-04-06T13:16:51.596Z,1.23
2018-04-06T13:19:19.991Z,1.17
2018-04-06T13:21:51.344Z,1.10
2018-04-06T13:24:19.706Z,1.00
2018-04-06T13:26:48.079Z,1.10
2018-04-06T13:29:16.438Z,1.17
2018-04-06T13:31:45.954Z,1.17
2018-04-06T13:34:15.229Z,1.20
2018-04-06T13:36:44.621Z,0.93
2018-04-06T13:39:12.974Z,0.80
2018-04-06T13:41:42.203Z,1.07
2018-04-06T13:44:10.563Z,1.20
2018-04-06T13:46:38.974Z,1.20
2018-04-06T13:49:07.304Z,0.80
2018-04-06T13:51:35.971Z,1.50
2018-04-06T13:54:04.702Z,1.00
2018-04-06T13:56:33.863Z,1.00
2018-04-06T13:59:02.255Z,0.70
2018-04-06T14:01:31.251Z,1.23
2018-04-06T14:04:01.987Z,1.00
2018-04-06T14:06:30.830Z,1.40
2018-04-06T14:09:00.820Z,1.10
2018-04-06T14:11:32.912Z,1.10
2018-04-06T14:14:01.528Z,1.20
2018-04-06T14:16:30.350Z,1.20
2018-04-06T14:18:58.672Z,1.23
2018-04-06T14:21:27.308Z,1.10
2018-04-06T14:23:57.162Z,1.00
2018-04-06T14:26:25.955Z,1.10
2018-04-06T14:28:55.975Z,1.10
2018-04-06T14:31:25.530Z,1.20
2018-04-06T14:33:55.658Z,1.40
2018-04-06T14:36:24.038Z,1.10
2018-04-06T14:38:53.244Z,1.30
2018-04-06T14:41:21.558Z,1.30
2018-04-06T14:43:50.410Z,1.03
2018-04-06T14:46:21.329Z,1.00
2018-04-06T14:48:49.665Z,1.23
2018-04-06T14:51:18.063Z,1.20
2018-04-06T14:53:46.390Z,1.30
2018-04-06T14:56:15.549Z,1.10
2018-04-06T14:58:44.824Z,1.33
2018-04-06T15:01:14.155Z,1.30
2018-04-06T15:03:42.509Z,1.40
2018-04-06T15:06:12.016Z,1.20
2018-04-06T15:08:41.327Z,1.17
2018-04-06T15:11:10.920Z,1.23
2018-04-06T15:13:39.282Z,1.33
2018-04-06T15:16:08.588Z,1.13
2018-04-06T15:18:37.896Z,1.27
2018-04-06T15:21:06.252Z,1.30
2018-04-06T15:23:35.343Z,1.20
2018-04-06T15:26:04.801Z,1.40
2018-04-06T15:28:33.714Z,1.40
2018-04-06T15:31:02.868Z,1.30
2018-04-06T15:33:31.238Z,1.43
2018-04-06T15:36:01.580Z,1.13
2018-04-06T15:38:29.976Z,1.43
2018-04-06T15:40:58.468Z,1.50
2018-04-06T15:43:28.076Z,1.33
2018-04-06T15:45:57.619Z,1.43
2018-04-06T15:48:26.060Z,1.60
2018-04-06T15:50:56.262Z,1.60
2018-04-06T15:53:24.983Z,1.40
2018-04-06T15:55:53.626Z,2.50
2018-04-06T15:58:21.951Z,2.07
2018-04-06T16:00:50.736Z,1.70
2018-04-06T16:03:19.865Z,2.40
2018-04-06T16:05:48.966Z,2.07
2018-04-06T16:08:19.132Z,2.70
2018-04-06T16:10:47.525Z,2.00
2018-04-06T16:13:16.116Z,2.50
2018-04-06T16:15:44.485Z,2.30
2018-04-06T16:18:17.007Z,2.53
2018-04-06T16:20:45.748Z,3.07
2018-04-06T16:23:14.870Z,3.07
2018-04-06T16:25:43.220Z,1.70
2018-04-06T16:28:12.832Z,2.10
2018-04-06T16:30:41.881Z,2.43
2018-04-06T16:33:10.240Z,1.67
2018-04-06T16:35:38.576Z,2.87
2018-04-06T16:38:06.925Z,3.00
2018-04-06T16:40:35.292Z,4.43
2018-04-06T16:43:03.664Z,3.70
2018-04-06T16:45:32.036Z,3.03
2018-04-06T16:48:01.132Z,1.87
2018-04-06T16:50:30.606Z,1.77
2018-04-06T16:53:02.906Z,1.60
2018-04-06T16:55:31.438Z,2.17
2018-04-06T16:57:59.957Z,2.27
2018-04-06T17:00:28.288Z,1.93
2018-04-06T17:02:56.822Z,2.50
2018-04-06T17:05:25.211Z,1.80
2018-04-06T17:07:55.059Z,2.80
2018-04-06T17:10:23.462Z,2.23
2018-04-06T17:12:51.806Z,1.80
2018-04-06T17:15:20.928Z,1.70
2018-04-06T17:17:51.457Z,1.80
2018-04-06T17:20:19.840Z,1.70
2018-04-06T17:22:48.854Z,1.60
2018-04-06T17:25:17.909Z,1.97
2018-04-06T17:27:46.772Z,2.03
2018-04-06T17:30:16.531Z,2.20
2018-04-06T17:32:44.969Z,1.90
2018-04-06T17:35:14.058Z,1.70
2018-04-06T17:37:42.460Z,1.73
2018-04-06T17:40:13.171Z,1.50
2018-04-06T17:42:43.344Z,1.70
2018-04-06T17:45:13.438Z,1.70
2018-04-06T17:47:41.890Z,1.43
2018-04-06T17:50:11.184Z,1.50
2018-04-06T17:55:13.497Z,1.77
2018-04-06T17:57:41.894Z,1.80
2018-04-06T18:00:12.010Z,1.73
2018-04-06T18:02:40.401Z,1.90
2018-04-06T18:05:10.282Z,1.50
2018-04-06T18:07:39.459Z,1.70
2018-04-06T18:10:08.743Z,1.47
2018-04-06T18:12:38.172Z,1.73
2018-04-06T18:15:07.584Z,1.70
2018-04-06T18:17:36.739Z,1.70
2018-04-06T18:20:06.326Z,1.77
2018-04-06T18:22:36.184Z,1.60
2018-04-06T18:25:06.039Z,1.70
2018-04-06T18:27:34.429Z,1.70
2018-04-06T18:30:03.518Z,1.40
2018-04-06T18:32:32.336Z,1.60
2018-04-06T18:35:01.787Z,2.23
2018-04-06T18:37:32.056Z,1.93
2018-04-06T18:40:01.431Z,2.57
2018-04-06T18:42:31.276Z,2.63
2018-04-06T18:44:59.674Z,2.50
2018-04-06T18:47:28.764Z,2.60
2018-04-06T18:49:57.853Z,2.70
2018-04-06T18:52:26.958Z,2.50
2018-04-06T18:54:56.134Z,2.70
2018-04-06T18:57:24.781Z,2.30
2018-04-06T18:59:56.089Z,2.30
2018-04-06T19:02:26.542Z,2.20
2018-04-06T19:04:57.778Z,2.33
2018-04-06T19:07:26.190Z,2.20
2018-04-06T19:09:55.385Z,2.30
2018-04-06T19:12:24.560Z,2.87
2018-04-06T19:14:52.884Z,2.50
2018-04-06T19:17:21.313Z,2.30
2018-04-06T19:19:51.006Z,2.13
2018-04-06T19:22:19.436Z,2.60
2018-04-06T19:24:48.216Z,3.07
2018-04-06T19:27:17.325Z,2.87
2018-04-06T19:29:46.679Z,2.70
2018-04-06T19:32:16.389Z,2.53
2018-04-06T19:34:44.787Z,2.40
2018-04-06T19:37:14.092Z,2.50
2018-04-06T19:39:42.487Z,2.50
2018-04-06T19:42:12.650Z,2.47
2018-04-06T19:44:41.898Z,2.40
2018-04-06T19:47:11.178Z,2.43
2018-04-06T19:49:39.628Z,2.27
2018-04-06T19:52:08.947Z,2.27
2018-04-06T19:54:37.314Z,2.30
2018-04-06T19:57:05.706Z,1.80
2018-04-06T19:59:36.948Z,1.90
2018-04-06T20:02:05.698Z,2.23
2018-04-06T20:04:35.471Z,2.70
2018-04-06T20:07:05.218Z,2.57
2018-04-06T20:09:33.611Z,2.13
2018-04-06T20:12:04.619Z,2.17
2018-04-06T20:14:33.540Z,1.93
2018-04-06T20:17:03.151Z,2.20
2018-04-06T20:19:34.509Z,2.40
2018-04-06T20:22:04.067Z,2.70
2018-04-06T20:24:33.432Z,2.73
2018-04-06T20:27:01.886Z,2.73
2018-04-06T20:29:31.000Z,3.23
2018-04-06T20:31:59.383Z,2.70
2018-04-06T20:34:28.460Z,2.20
2018-04-06T20:36:58.652Z,2.10
2018-04-06T20:39:31.163Z,2.00
2018-04-06T20:42:00.170Z,2.40
2018-04-06T20:44:30.280Z,2.13
2018-04-06T20:46:58.621Z,2.00
2018-04-06T20:49:27.851Z,2.13
2018-04-06T20:51:57.857Z,1.93
2018-04-06T20:54:28.337Z,2.33
2018-04-06T20:56:58.353Z,2.40
2018-04-06T20:59:28.122Z,3.83
2018-04-06T21:01:57.528Z,2.60
2018-04-06T21:04:27.991Z,2.60
2018-04-06T21:06:58.089Z,1.90
2018-04-06T21:09:26.904Z,1.87
2018-04-06T21:11:56.995Z,1.87
2018-04-06T21:14:26.438Z,2.30
2018-04-06T21:16:56.020Z,2.00
2018-04-06T21:19:25.301Z,2.13
2018-04-06T21:21:54.099Z,2.30
2018-04-06T21:24:24.036Z,2.10
2018-04-06T21:26:54.237Z,2.27
2018-04-06T21:29:23.031Z,2.00
2018-04-06T21:31:51.463Z,2.33
2018-04-06T21:34:19.927Z,2.30
2018-04-06T21:36:48.307Z,2.60
2018-04-06T21:39:18.114Z,2.53
2018-04-06T21:44:20.718Z,2.00
2018-04-06T21:46:50.008Z,2.00
2018-04-06T21:49:19.163Z,1.97
2018-04-06T21:51:48.441Z,1.87
2018-04-06T21:54:18.962Z,1.87
2018-04-06T21:56:49.688Z,1.77
2018-04-06T21:59:22.349Z,1.90
2018-04-06T22:01:54.236Z,1.83
2018-04-06T22:04:22.550Z,1.70
2018-04-06T22:06:51.241Z,1.87
2018-04-06T22:09:22.186Z,1.70
2018-04-06T22:11:51.556Z,2.00
2018-04-06T22:14:20.740Z,2.07
2018-04-06T22:16:49.154Z,1.73
2018-04-06T22:19:18.865Z,1.80
2018-04-06T22:21:47.539Z,1.60
2018-04-06T22:24:17.398Z,1.80
2018-04-06T22:26:45.782Z,2.00
2018-04-06T22:29:15.991Z,1.97
2018-04-06T22:31:44.417Z,1.93
2018-04-06T22:34:14.028Z,2.00
2018-04-06T22:36:43.293Z,1.63
2018-04-06T22:39:11.662Z,1.70
2018-04-06T22:41:40.939Z,1.80
2018-04-06T22:44:10.050Z,1.70
2018-04-06T22:46:39.982Z,2.00
2018-04-06T22:49:10.898Z,2.00
2018-04-06T22:51:41.846Z,1.90
2018-04-06T22:54:10.934Z,1.80
2018-04-06T22:56:39.264Z,2.10
2018-04-06T22:59:08.292Z,1.83
2018-04-06T23:01:40.505Z,1.80
2018-04-06T23:04:10.331Z,1.53
2018-04-06T23:06:38.939Z,1.90
2018-04-06T23:09:09.779Z,2.10
2018-04-06T23:11:38.393Z,1.87
2018-04-06T23:14:07.795Z,2.07
2018-04-06T23:16:37.186Z,2.37
2018-04-06T23:19:05.535Z,2.80
2018-04-06T23:21:39.128Z,2.30
2018-04-06T23:24:08.920Z,1.93
2018-04-06T23:26:38.849Z,2.00
2018-04-06T23:29:07.473Z,2.00
2018-04-06T23:31:36.836Z,2.07
2018-04-06T23:34:05.302Z,1.87
2018-04-06T23:36:36.704Z,2.13
2018-04-06T23:39:06.936Z,3.23
2018-04-06T23:41:36.161Z,2.30
2018-04-06T23:44:05.151Z,2.00
2018-04-06T23:46:34.250Z,1.80
2018-04-06T23:49:03.266Z,1.87
2018-04-06T23:51:31.599Z,1.70
2018-04-06T23:54:03.855Z,1.97
2018-04-06T23:56:33.044Z,2.00
2018-04-06T23:59:01.830Z,1.90
